sensor_id;sensor_type;location;lat;lon;timestamp;temperature;humidity
24518;DHT22;12678;51.336;12.406;2023-12-28T00:00:38;8.70;99.90
24518;DHT22;12678;51.336;12.406;2023-12-28T00:03:04;8.80;99.90
24518;DHT22;12678;51.336;12.406;2023-12-28T00:05:29;8.80;99.90
24518;DHT22;12678;51.336;12.406;2023-12-28T00:07:55;8.80;99.90
24518;DHT22;12678;51.336;12.406;2023-12-28T00:10:27;8.80;99.90
24518;DHT22;12678;51.336;12.406;2023-12-28T00:12:53;8.90;99.90
24518;DHT22;12678;51.336;12.406;2023-12-28T00:15:19;8.90;99.90
24518;DHT22;12678;51.336;12.406;2023-12-28T00:17:44;9.00;99.90
24518;DHT22;12678;51.336;12.406;2023-12-28T00:20:10;9.00;99.90
24518;DHT22;12678;51.336;12.406;2023-12-28T00:22:36;9.10;99.90
24518;DHT22;12678;51.336;12.406;2023-12-28T00:25:05;9.10;99.90
24518;DHT22;12678;51.336;12.406;2023-12-28T00:27:31;9.10;99.90
24518;DHT22;12678;51.336;12.406;2023-12-28T00:29:56;9.10;99.90
24518;DHT22;12678;51.336;12.406;2023-12-28T00:32:22;9.20;99.90
24518;DHT22;12678;51.336;12.406;2023-12-28T00:34:47;9.10;99.90
24518;DHT22;12678;51.336;12.406;2023-12-28T00:37:13;9.10;99.90
24518;DHT22;12678;51.336;12.406;2023-12-28T00:39:38;9.10;99.90
24518;DHT22;12678;51.336;12.406;2023-12-28T00:42:06;9.20;99.90
24518;DHT22;12678;51.336;12.406;2023-12-28T00:44:31;9.10;99.90
24518;DHT22;12678;51.336;12.406;2023-12-28T00:46:57;9.20;99.90
24518;DHT22;12678;51.336;12.406;2023-12-28T00:49:22;9.20;99.90
24518;DHT22;12678;51.336;12.406;2023-12-28T00:51:48;9.20;99.90
24518;DHT22;12678;51.336;12.406;2023-12-28T00:54:13;9.20;99.90
24518;DHT22;12678;51.336;12.406;2023-12-28T00:56:39;9.20;99.90
24518;DHT22;12678;51.336;12.406;2023-12-28T00:59:04;9.10;99.90
24518;DHT22;12678;51.336;12.406;2023-12-28T01:01:30;9.10;99.90
24518;DHT22;12678;51.336;12.406;2023-12-28T01:03:56;9.10;99.90
24518;DHT22;12678;51.336;12.406;2023-12-28T01:06:22;9.10;99.90
24518;DHT22;12678;51.336;12.406;2023-12-28T01:08:48;9.10;99.90
24518;DHT22;12678;51.336;12.406;2023-12-28T01:11:13;9.10;99.90
24518;DHT22;12678;51.336;12.406;2023-12-28T01:13:39;9.10;99.90
24518;DHT22;12678;51.336;12.406;2023-12-28T01:16:05;9.00;99.90
24518;DHT22;12678;51.336;12.406;2023-12-28T01:18:30;9.00;99.90
24518;DHT22;12678;51.336;12.406;2023-12-28T01:20:56;9.00;99.90
24518;DHT22;12678;51.336;12.406;2023-12-28T01:23:21;9.00;99.90
24518;DHT22;12678;51.336;12.406;2023-12-28T01:25:47;9.00;99.90
24518;DHT22;12678;51.336;12.406;2023-12-28T01:28:12;9.00;99.90
24518;DHT22;12678;51.336;12.406;2023-12-28T01:30:38;9.00;99.90
24518;DHT22;12678;51.336;12.406;2023-12-28T01:33:04;9.00;99.90
24518;DHT22;12678;51.336;12.406;2023-12-28T01:35:29;9.00;99.90
24518;DHT22;12678;51.336;12.406;2023-12-28T01:37:55;9.10;99.90
24518;DHT22;12678;51.336;12.406;2023-12-28T01:40:21;9.00;99.90
24518;DHT22;12678;51.336;12.406;2023-12-28T01:42:46;9.10;99.90
24518;DHT22;12678;51.336;12.406;2023-12-28T01:45:12;9.10;99.90
24518;DHT22;12678;51.336;12.406;2023-12-28T01:47:37;9.10;99.90
24518;DHT22;12678;51.336;12.406;2023-12-28T01:50:04;9.10;99.90
24518;DHT22;12678;51.336;12.406;2023-12-28T01:52:31;9.10;99.90
24518;DHT22;12678;51.336;12.406;2023-12-28T01:54:57;9.10;99.90
24518;DHT22;12678;51.336;12.406;2023-12-28T01:57:22;9.10;99.90
24518;DHT22;12678;51.336;12.406;2023-12-28T01:59:48;9.10;99.90
24518;DHT22;12678;51.336;12.406;2023-12-28T02:02:14;9.10;99.90
24518;DHT22;12678;51.336;12.406;2023-12-28T02:04:39;9.10;99.90
24518;DHT22;12678;51.336;12.406;2023-12-28T02:07:05;9.10;99.90
24518;DHT22;12678;51.336;12.406;2023-12-28T02:09:32;9.10;99.90
24518;DHT22;12678;51.336;12.406;2023-12-28T02:11:57;9.10;99.90
24518;DHT22;12678;51.336;12.406;2023-12-28T02:14:23;9.10;99.90
24518;DHT22;12678;51.336;12.406;2023-12-28T02:17:12;9.10;99.90
24518;DHT22;12678;51.336;12.406;2023-12-28T02:19:58;9.10;99.90
24518;DHT22;12678;51.336;12.406;2023-12-28T02:22:25;9.10;99.90
24518;DHT22;12678;51.336;12.406;2023-12-28T02:25:02;9.20;99.90
24518;DHT22;12678;51.336;12.406;2023-12-28T02:27:28;9.20;99.90
24518;DHT22;12678;51.336;12.406;2023-12-28T02:29:55;9.20;99.90
24518;DHT22;12678;51.336;12.406;2023-12-28T02:32:28;9.20;99.90
24518;DHT22;12678;51.336;12.406;2023-12-28T02:35:06;9.20;99.90
24518;DHT22;12678;51.336;12.406;2023-12-28T02:37:33;9.20;99.90
24518;DHT22;12678;51.336;12.406;2023-12-28T02:39:59;9.20;99.90
24518;DHT22;12678;51.336;12.406;2023-12-28T02:42:25;9.30;99.90
24518;DHT22;12678;51.336;12.406;2023-12-28T02:44:51;9.30;99.90
24518;DHT22;12678;51.336;12.406;2023-12-28T02:47:16;9.30;99.90
24518;DHT22;12678;51.336;12.406;2023-12-28T02:49:42;9.40;99.90
24518;DHT22;12678;51.336;12.406;2023-12-28T02:52:07;9.40;99.90
24518;DHT22;12678;51.336;12.406;2023-12-28T02:54:33;9.40;99.90
24518;DHT22;12678;51.336;12.406;2023-12-28T02:56:59;9.40;99.90
24518;DHT22;12678;51.336;12.406;2023-12-28T02:59:24;9.50;99.90
24518;DHT22;12678;51.336;12.406;2023-12-28T03:01:50;9.50;99.90
24518;DHT22;12678;51.336;12.406;2023-12-28T03:04:15;9.50;99.90
24518;DHT22;12678;51.336;12.406;2023-12-28T03:06:41;9.50;99.90
24518;DHT22;12678;51.336;12.406;2023-12-28T03:09:07;9.60;99.90
24518;DHT22;12678;51.336;12.406;2023-12-28T03:11:32;9.60;99.90
24518;DHT22;12678;51.336;12.406;2023-12-28T03:13:58;9.70;99.90
24518;DHT22;12678;51.336;12.406;2023-12-28T03:16:23;9.70;99.90
24518;DHT22;12678;51.336;12.406;2023-12-28T03:18:49;9.80;99.90
24518;DHT22;12678;51.336;12.406;2023-12-28T03:21:14;9.90;99.90
24518;DHT22;12678;51.336;12.406;2023-12-28T03:23:40;9.90;99.90
24518;DHT22;12678;51.336;12.406;2023-12-28T03:26:05;9.90;99.90
24518;DHT22;12678;51.336;12.406;2023-12-28T03:28:31;9.90;99.90
24518;DHT22;12678;51.336;12.406;2023-12-28T03:30:56;10.00;99.90
24518;DHT22;12678;51.336;12.406;2023-12-28T03:33:22;10.00;99.90
24518;DHT22;12678;51.336;12.406;2023-12-28T03:35:47;10.00;99.90
24518;DHT22;12678;51.336;12.406;2023-12-28T03:38:13;10.00;99.90
24518;DHT22;12678;51.336;12.406;2023-12-28T03:40:38;10.10;99.90
24518;DHT22;12678;51.336;12.406;2023-12-28T03:43:04;10.10;99.90
24518;DHT22;12678;51.336;12.406;2023-12-28T03:45:29;10.10;99.90
24518;DHT22;12678;51.336;12.406;2023-12-28T03:47:55;10.10;99.90
24518;DHT22;12678;51.336;12.406;2023-12-28T03:50:20;10.10;99.90
24518;DHT22;12678;51.336;12.406;2023-12-28T03:52:46;10.10;99.90
24518;DHT22;12678;51.336;12.406;2023-12-28T03:55:11;10.10;99.90
24518;DHT22;12678;51.336;12.406;2023-12-28T03:57:37;10.10;99.90
24518;DHT22;12678;51.336;12.406;2023-12-28T04:00:03;10.10;99.90
24518;DHT22;12678;51.336;12.406;2023-12-28T04:02:28;10.10;99.90
24518;DHT22;12678;51.336;12.406;2023-12-28T04:04:56;10.10;99.90
24518;DHT22;12678;51.336;12.406;2023-12-28T04:07:24;10.10;99.90
24518;DHT22;12678;51.336;12.406;2023-12-28T04:09:49;10.10;99.90
24518;DHT22;12678;51.336;12.406;2023-12-28T04:12:15;10.10;99.90
24518;DHT22;12678;51.336;12.406;2023-12-28T04:14:40;10.10;99.90
24518;DHT22;12678;51.336;12.406;2023-12-28T04:17:06;10.10;99.90
24518;DHT22;12678;51.336;12.406;2023-12-28T04:19:31;10.10;99.90
24518;DHT22;12678;51.336;12.406;2023-12-28T04:21:57;10.10;99.90
24518;DHT22;12678;51.336;12.406;2023-12-28T04:24:23;10.10;99.90
24518;DHT22;12678;51.336;12.406;2023-12-28T04:26:48;10.10;99.90
24518;DHT22;12678;51.336;12.406;2023-12-28T04:29:13;10.10;99.90
24518;DHT22;12678;51.336;12.406;2023-12-28T04:31:40;10.10;99.90
24518;DHT22;12678;51.336;12.406;2023-12-28T04:34:07;10.00;99.90
24518;DHT22;12678;51.336;12.406;2023-12-28T04:36:32;10.10;99.90
24518;DHT22;12678;51.336;12.406;2023-12-28T04:38:58;10.10;99.90
24518;DHT22;12678;51.336;12.406;2023-12-28T04:41:23;10.10;99.90
24518;DHT22;12678;51.336;12.406;2023-12-28T04:43:49;10.10;99.90
24518;DHT22;12678;51.336;12.406;2023-12-28T04:46:14;10.10;99.90
24518;DHT22;12678;51.336;12.406;2023-12-28T04:48:41;10.10;99.90
24518;DHT22;12678;51.336;12.406;2023-12-28T04:51:07;10.10;99.90
24518;DHT22;12678;51.336;12.406;2023-12-28T04:53:33;10.10;99.90
24518;DHT22;12678;51.336;12.406;2023-12-28T04:55:59;10.20;99.90
24518;DHT22;12678;51.336;12.406;2023-12-28T04:58:24;10.10;99.90
24518;DHT22;12678;51.336;12.406;2023-12-28T05:00:50;10.20;99.90
24518;DHT22;12678;51.336;12.406;2023-12-28T05:03:15;10.20;99.90
24518;DHT22;12678;51.336;12.406;2023-12-28T05:05:41;10.20;99.90
24518;DHT22;12678;51.336;12.406;2023-12-28T05:08:06;10.20;99.90
24518;DHT22;12678;51.336;12.406;2023-12-28T05:10:32;10.20;99.90
24518;DHT22;12678;51.336;12.406;2023-12-28T05:12:57;10.20;99.90
24518;DHT22;12678;51.336;12.406;2023-12-28T05:15:23;10.20;99.90
24518;DHT22;12678;51.336;12.406;2023-12-28T05:17:48;10.20;99.90
24518;DHT22;12678;51.336;12.406;2023-12-28T05:20:16;10.20;99.90
24518;DHT22;12678;51.336;12.406;2023-12-28T05:22:41;10.20;99.90
24518;DHT22;12678;51.336;12.406;2023-12-28T05:25:07;10.20;99.90
24518;DHT22;12678;51.336;12.406;2023-12-28T05:27:32;10.20;99.90
24518;DHT22;12678;51.336;12.406;2023-12-28T05:29:58;10.20;99.90
24518;DHT22;12678;51.336;12.406;2023-12-28T05:32:23;10.20;99.90
24518;DHT22;12678;51.336;12.406;2023-12-28T05:34:49;10.20;99.90
24518;DHT22;12678;51.336;12.406;2023-12-28T05:37:15;10.20;99.90
24518;DHT22;12678;51.336;12.406;2023-12-28T05:39:41;10.20;99.90
24518;DHT22;12678;51.336;12.406;2023-12-28T05:42:06;10.20;99.90
24518;DHT22;12678;51.336;12.406;2023-12-28T05:44:32;10.20;99.90
24518;DHT22;12678;51.336;12.406;2023-12-28T05:46:57;10.20;99.90
24518;DHT22;12678;51.336;12.406;2023-12-28T05:49:23;10.20;99.90
24518;DHT22;12678;51.336;12.406;2023-12-28T05:51:50;10.20;99.90
24518;DHT22;12678;51.336;12.406;2023-12-28T05:54:15;10.30;99.90
24518;DHT22;12678;51.336;12.406;2023-12-28T05:56:41;10.30;99.90
24518;DHT22;12678;51.336;12.406;2023-12-28T05:59:07;10.30;99.90
24518;DHT22;12678;51.336;12.406;2023-12-28T06:01:40;10.20;99.90
24518;DHT22;12678;51.336;12.406;2023-12-28T06:04:06;10.20;99.90
24518;DHT22;12678;51.336;12.406;2023-12-28T06:06:32;10.20;99.90
24518;DHT22;12678;51.336;12.406;2023-12-28T06:08:57;10.20;99.90
24518;DHT22;12678;51.336;12.406;2023-12-28T06:11:23;10.20;99.90
24518;DHT22;12678;51.336;12.406;2023-12-28T06:13:49;10.20;99.90
24518;DHT22;12678;51.336;12.406;2023-12-28T06:16:14;10.20;99.90
24518;DHT22;12678;51.336;12.406;2023-12-28T06:18:40;10.20;99.90
24518;DHT22;12678;51.336;12.406;2023-12-28T06:21:08;10.20;99.90
24518;DHT22;12678;51.336;12.406;2023-12-28T06:23:33;10.20;99.90
24518;DHT22;12678;51.336;12.406;2023-12-28T06:26:04;10.30;99.90
24518;DHT22;12678;51.336;12.406;2023-12-28T06:28:30;10.30;99.90
24518;DHT22;12678;51.336;12.406;2023-12-28T06:30:57;10.30;99.90
24518;DHT22;12678;51.336;12.406;2023-12-28T06:33:26;10.30;99.90
24518;DHT22;12678;51.336;12.406;2023-12-28T06:35:53;10.30;99.90
24518;DHT22;12678;51.336;12.406;2023-12-28T06:38:18;10.20;99.90
24518;DHT22;12678;51.336;12.406;2023-12-28T06:40:44;10.20;99.90
24518;DHT22;12678;51.336;12.406;2023-12-28T06:43:09;10.20;99.90
24518;DHT22;12678;51.336;12.406;2023-12-28T06:45:35;10.10;99.90
24518;DHT22;12678;51.336;12.406;2023-12-28T06:48:00;10.10;99.90
24518;DHT22;12678;51.336;12.406;2023-12-28T06:50:26;10.10;99.90
24518;DHT22;12678;51.336;12.406;2023-12-28T06:52:51;10.10;99.90
24518;DHT22;12678;51.336;12.406;2023-12-28T06:55:17;10.10;99.90
24518;DHT22;12678;51.336;12.406;2023-12-28T06:57:42;10.10;99.90
24518;DHT22;12678;51.336;12.406;2023-12-28T07:00:08;10.10;99.90
24518;DHT22;12678;51.336;12.406;2023-12-28T07:02:34;10.00;99.90
24518;DHT22;12678;51.336;12.406;2023-12-28T07:04:59;10.00;99.90
24518;DHT22;12678;51.336;12.406;2023-12-28T07:07:25;10.00;99.90
24518;DHT22;12678;51.336;12.406;2023-12-28T07:09:50;10.00;99.90
24518;DHT22;12678;51.336;12.406;2023-12-28T07:12:16;10.00;99.90
24518;DHT22;12678;51.336;12.406;2023-12-28T07:14:45;10.00;99.90
24518;DHT22;12678;51.336;12.406;2023-12-28T07:17:11;10.00;99.90
24518;DHT22;12678;51.336;12.406;2023-12-28T07:19:37;10.00;99.90
24518;DHT22;12678;51.336;12.406;2023-12-28T07:22:03;10.00;99.90
24518;DHT22;12678;51.336;12.406;2023-12-28T07:24:28;10.00;99.90
24518;DHT22;12678;51.336;12.406;2023-12-28T07:26:54;9.90;99.90
24518;DHT22;12678;51.336;12.406;2023-12-28T07:29:19;10.00;99.90
24518;DHT22;12678;51.336;12.406;2023-12-28T07:31:45;9.90;99.90
24518;DHT22;12678;51.336;12.406;2023-12-28T07:34:10;9.90;99.90
24518;DHT22;12678;51.336;12.406;2023-12-28T07:36:36;9.80;99.90
24518;DHT22;12678;51.336;12.406;2023-12-28T07:39:01;9.90;99.90
24518;DHT22;12678;51.336;12.406;2023-12-28T07:41:27;9.90;99.90
24518;DHT22;12678;51.336;12.406;2023-12-28T07:43:52;9.80;99.90
24518;DHT22;12678;51.336;12.406;2023-12-28T07:46:18;9.80;99.90
24518;DHT22;12678;51.336;12.406;2023-12-28T07:48:43;9.80;99.90
24518;DHT22;12678;51.336;12.406;2023-12-28T07:51:09;9.80;99.90
24518;DHT22;12678;51.336;12.406;2023-12-28T07:53:34;9.80;99.90
24518;DHT22;12678;51.336;12.406;2023-12-28T07:56:00;9.80;99.90
24518;DHT22;12678;51.336;12.406;2023-12-28T07:58:25;9.70;99.90
24518;DHT22;12678;51.336;12.406;2023-12-28T08:00:51;9.70;99.90
24518;DHT22;12678;51.336;12.406;2023-12-28T08:03:17;9.70;99.90
24518;DHT22;12678;51.336;12.406;2023-12-28T08:05:43;9.70;99.90
24518;DHT22;12678;51.336;12.406;2023-12-28T08:08:08;9.70;99.90
24518;DHT22;12678;51.336;12.406;2023-12-28T08:10:34;9.70;99.90
24518;DHT22;12678;51.336;12.406;2023-12-28T08:12:59;9.70;99.90
24518;DHT22;12678;51.336;12.406;2023-12-28T08:15:25;9.70;99.90
24518;DHT22;12678;51.336;12.406;2023-12-28T08:17:50;9.70;99.90
24518;DHT22;12678;51.336;12.406;2023-12-28T08:20:16;9.70;99.90
24518;DHT22;12678;51.336;12.406;2023-12-28T08:22:41;9.70;99.90
24518;DHT22;12678;51.336;12.406;2023-12-28T08:25:07;9.70;99.90
24518;DHT22;12678;51.336;12.406;2023-12-28T08:27:33;9.70;99.90
24518;DHT22;12678;51.336;12.406;2023-12-28T08:29:58;9.70;99.90
24518;DHT22;12678;51.336;12.406;2023-12-28T08:32:24;9.70;99.90
24518;DHT22;12678;51.336;12.406;2023-12-28T08:34:49;9.70;99.90
24518;DHT22;12678;51.336;12.406;2023-12-28T08:37:16;9.80;99.90
24518;DHT22;12678;51.336;12.406;2023-12-28T08:39:41;9.80;99.90
24518;DHT22;12678;51.336;12.406;2023-12-28T08:42:07;9.70;99.90
24518;DHT22;12678;51.336;12.406;2023-12-28T08:44:32;9.70;99.90
24518;DHT22;12678;51.336;12.406;2023-12-28T08:46:59;9.70;99.90
24518;DHT22;12678;51.336;12.406;2023-12-28T08:49:24;9.70;99.90
24518;DHT22;12678;51.336;12.406;2023-12-28T08:51:50;9.70;99.90
24518;DHT22;12678;51.336;12.406;2023-12-28T08:54:16;9.70;99.90
24518;DHT22;12678;51.336;12.406;2023-12-28T08:56:41;9.70;99.90
24518;DHT22;12678;51.336;12.406;2023-12-28T08:59:07;9.70;99.90
24518;DHT22;12678;51.336;12.406;2023-12-28T09:01:34;9.70;99.90
24518;DHT22;12678;51.336;12.406;2023-12-28T09:04:00;9.70;99.90
24518;DHT22;12678;51.336;12.406;2023-12-28T09:06:26;9.70;99.90
24518;DHT22;12678;51.336;12.406;2023-12-28T09:08:52;9.70;99.90
24518;DHT22;12678;51.336;12.406;2023-12-28T09:11:18;9.70;99.90
24518;DHT22;12678;51.336;12.406;2023-12-28T09:13:44;9.60;99.90
24518;DHT22;12678;51.336;12.406;2023-12-28T09:16:11;9.60;99.90
24518;DHT22;12678;51.336;12.406;2023-12-28T09:18:38;9.70;99.90
24518;DHT22;12678;51.336;12.406;2023-12-28T09:21:05;9.70;99.90
24518;DHT22;12678;51.336;12.406;2023-12-28T09:23:31;9.70;99.90
24518;DHT22;12678;51.336;12.406;2023-12-28T09:25:58;9.70;99.90
24518;DHT22;12678;51.336;12.406;2023-12-28T09:28:24;9.70;99.90
24518;DHT22;12678;51.336;12.406;2023-12-28T09:30:49;9.70;99.90
24518;DHT22;12678;51.336;12.406;2023-12-28T09:33:15;9.80;99.90
24518;DHT22;12678;51.336;12.406;2023-12-28T09:35:41;9.80;99.90
24518;DHT22;12678;51.336;12.406;2023-12-28T09:38:07;9.80;99.90
24518;DHT22;12678;51.336;12.406;2023-12-28T09:40:33;9.80;99.90
24518;DHT22;12678;51.336;12.406;2023-12-28T09:43:25;9.80;99.90
24518;DHT22;12678;51.336;12.406;2023-12-28T09:45:52;9.80;99.90
24518;DHT22;12678;51.336;12.406;2023-12-28T09:48:18;9.70;99.90
24518;DHT22;12678;51.336;12.406;2023-12-28T09:50:45;9.80;99.90
24518;DHT22;12678;51.336;12.406;2023-12-28T09:53:12;9.70;99.90
24518;DHT22;12678;51.336;12.406;2023-12-28T09:55:37;9.80;99.90
24518;DHT22;12678;51.336;12.406;2023-12-28T09:58:04;9.70;99.90
24518;DHT22;12678;51.336;12.406;2023-12-28T10:00:31;9.70;99.90
24518;DHT22;12678;51.336;12.406;2023-12-28T10:02:57;9.80;99.90
24518;DHT22;12678;51.336;12.406;2023-12-28T10:05:23;9.80;99.90
24518;DHT22;12678;51.336;12.406;2023-12-28T10:07:50;9.80;99.90
24518;DHT22;12678;51.336;12.406;2023-12-28T10:10:16;9.80;99.90
24518;DHT22;12678;51.336;12.406;2023-12-28T10:12:42;9.80;99.90
24518;DHT22;12678;51.336;12.406;2023-12-28T10:15:09;9.90;99.90
24518;DHT22;12678;51.336;12.406;2023-12-28T10:17:35;9.90;99.90
24518;DHT22;12678;51.336;12.406;2023-12-28T10:20:03;9.90;99.90
24518;DHT22;12678;51.336;12.406;2023-12-28T10:22:31;9.90;99.90
24518;DHT22;12678;51.336;12.406;2023-12-28T10:24:57;9.90;99.90
24518;DHT22;12678;51.336;12.406;2023-12-28T10:27:25;9.90;99.90
24518;DHT22;12678;51.336;12.406;2023-12-28T10:29:54;9.90;99.90
24518;DHT22;12678;51.336;12.406;2023-12-28T10:32:21;9.80;99.90
24518;DHT22;12678;51.336;12.406;2023-12-28T10:34:48;9.80;99.90
24518;DHT22;12678;51.336;12.406;2023-12-28T10:37:14;9.80;99.90
24518;DHT22;12678;51.336;12.406;2023-12-28T10:39:48;9.80;99.90
24518;DHT22;12678;51.336;12.406;2023-12-28T10:42:28;9.80;99.90
24518;DHT22;12678;51.336;12.406;2023-12-28T10:45:02;9.80;99.90
24518;DHT22;12678;51.336;12.406;2023-12-28T10:47:37;9.80;99.90
24518;DHT22;12678;51.336;12.406;2023-12-28T10:50:04;9.80;99.90
24518;DHT22;12678;51.336;12.406;2023-12-28T10:52:31;9.80;99.90
24518;DHT22;12678;51.336;12.406;2023-12-28T10:55:30;9.80;99.90
24518;DHT22;12678;51.336;12.406;2023-12-28T11:00:31;9.80;99.90
24518;DHT22;12678;51.336;12.406;2023-12-28T11:03:03;9.80;99.90
24518;DHT22;12678;51.336;12.406;2023-12-28T11:05:32;9.90;99.90
24518;DHT22;12678;51.336;12.406;2023-12-28T11:07:58;9.90;99.90
24518;DHT22;12678;51.336;12.406;2023-12-28T11:10:26;10.00;99.90
24518;DHT22;12678;51.336;12.406;2023-12-28T11:12:54;10.00;99.90
24518;DHT22;12678;51.336;12.406;2023-12-28T11:15:22;10.10;99.90
24518;DHT22;12678;51.336;12.406;2023-12-28T11:17:49;10.10;99.90
24518;DHT22;12678;51.336;12.406;2023-12-28T11:20:15;10.10;99.90
24518;DHT22;12678;51.336;12.406;2023-12-28T11:22:41;10.10;99.90
24518;DHT22;12678;51.336;12.406;2023-12-28T11:25:15;10.20;99.90
24518;DHT22;12678;51.336;12.406;2023-12-28T11:27:41;10.20;99.90
24518;DHT22;12678;51.336;12.406;2023-12-28T11:30:10;10.30;99.90
24518;DHT22;12678;51.336;12.406;2023-12-28T11:32:36;10.30;99.90
24518;DHT22;12678;51.336;12.406;2023-12-28T11:35:02;10.20;99.90
24518;DHT22;12678;51.336;12.406;2023-12-28T11:37:32;10.20;99.90
24518;DHT22;12678;51.336;12.406;2023-12-28T11:39:58;10.30;99.90
24518;DHT22;12678;51.336;12.406;2023-12-28T11:42:34;10.30;99.90
24518;DHT22;12678;51.336;12.406;2023-12-28T11:45:00;10.30;99.90
24518;DHT22;12678;51.336;12.406;2023-12-28T11:47:26;10.30;99.90
24518;DHT22;12678;51.336;12.406;2023-12-28T11:49:55;10.30;99.90
24518;DHT22;12678;51.336;12.406;2023-12-28T11:52:31;10.30;99.90
24518;DHT22;12678;51.336;12.406;2023-12-28T11:54:58;10.30;99.90
24518;DHT22;12678;51.336;12.406;2023-12-28T11:57:24;10.30;99.90
24518;DHT22;12678;51.336;12.406;2023-12-28T11:59:57;10.30;99.90
24518;DHT22;12678;51.336;12.406;2023-12-28T12:02:22;10.30;99.90
24518;DHT22;12678;51.336;12.406;2023-12-28T12:04:49;10.30;99.90
24518;DHT22;12678;51.336;12.406;2023-12-28T12:07:15;10.40;99.90
24518;DHT22;12678;51.336;12.406;2023-12-28T12:09:40;10.40;99.90
24518;DHT22;12678;51.336;12.406;2023-12-28T12:12:06;10.40;99.90
24518;DHT22;12678;51.336;12.406;2023-12-28T12:14:34;10.40;99.90
24518;DHT22;12678;51.336;12.406;2023-12-28T12:17:00;10.40;99.90
24518;DHT22;12678;51.336;12.406;2023-12-28T12:19:26;10.40;99.90
24518;DHT22;12678;51.336;12.406;2023-12-28T12:21:56;10.40;99.90
24518;DHT22;12678;51.336;12.406;2023-12-28T12:24:22;10.50;99.90
24518;DHT22;12678;51.336;12.406;2023-12-28T12:26:50;10.50;99.90
24518;DHT22;12678;51.336;12.406;2023-12-28T12:29:15;10.50;99.90
24518;DHT22;12678;51.336;12.406;2023-12-28T12:31:41;10.50;99.90
24518;DHT22;12678;51.336;12.406;2023-12-28T12:34:09;10.60;99.90
24518;DHT22;12678;51.336;12.406;2023-12-28T12:36:35;10.60;99.90
24518;DHT22;12678;51.336;12.406;2023-12-28T12:39:01;10.60;99.90
24518;DHT22;12678;51.336;12.406;2023-12-28T12:41:27;10.60;99.90
24518;DHT22;12678;51.336;12.406;2023-12-28T12:43:53;10.60;99.90
24518;DHT22;12678;51.336;12.406;2023-12-28T12:46:22;10.60;99.90
24518;DHT22;12678;51.336;12.406;2023-12-28T12:48:58;10.60;99.90
24518;DHT22;12678;51.336;12.406;2023-12-28T12:51:25;10.60;99.90
24518;DHT22;12678;51.336;12.406;2023-12-28T12:53:58;10.60;99.90
24518;DHT22;12678;51.336;12.406;2023-12-28T12:56:28;10.60;99.90
24518;DHT22;12678;51.336;12.406;2023-12-28T12:58:57;10.60;99.90
24518;DHT22;12678;51.336;12.406;2023-12-28T13:01:23;10.60;99.90
24518;DHT22;12678;51.336;12.406;2023-12-28T13:03:50;10.50;99.90
24518;DHT22;12678;51.336;12.406;2023-12-28T13:06:16;10.50;99.90
24518;DHT22;12678;51.336;12.406;2023-12-28T13:08:42;10.60;99.90
24518;DHT22;12678;51.336;12.406;2023-12-28T13:11:07;10.60;99.90
24518;DHT22;12678;51.336;12.406;2023-12-28T13:13:34;10.60;99.90
24518;DHT22;12678;51.336;12.406;2023-12-28T13:16:00;10.60;99.90
24518;DHT22;12678;51.336;12.406;2023-12-28T13:18:26;10.60;99.90
24518;DHT22;12678;51.336;12.406;2023-12-28T13:20:51;10.60;99.90
24518;DHT22;12678;51.336;12.406;2023-12-28T13:23:17;10.60;99.90
24518;DHT22;12678;51.336;12.406;2023-12-28T13:25:42;10.60;99.90
24518;DHT22;12678;51.336;12.406;2023-12-28T13:28:09;10.60;99.90
24518;DHT22;12678;51.336;12.406;2023-12-28T13:30:35;10.60;99.90
24518;DHT22;12678;51.336;12.406;2023-12-28T13:33:05;10.60;99.90
24518;DHT22;12678;51.336;12.406;2023-12-28T13:35:31;10.60;99.90
24518;DHT22;12678;51.336;12.406;2023-12-28T13:38:00;10.60;99.90
24518;DHT22;12678;51.336;12.406;2023-12-28T13:40:27;10.60;99.90
24518;DHT22;12678;51.336;12.406;2023-12-28T13:42:53;10.60;99.90
24518;DHT22;12678;51.336;12.406;2023-12-28T13:45:18;10.60;99.90
24518;DHT22;12678;51.336;12.406;2023-12-28T13:47:44;10.60;99.90
24518;DHT22;12678;51.336;12.406;2023-12-28T13:50:10;10.60;99.90
24518;DHT22;12678;51.336;12.406;2023-12-28T13:52:35;10.60;99.90
24518;DHT22;12678;51.336;12.406;2023-12-28T13:55:01;10.60;99.90
24518;DHT22;12678;51.336;12.406;2023-12-28T13:57:27;10.60;99.90
24518;DHT22;12678;51.336;12.406;2023-12-28T13:59:52;10.60;99.90
24518;DHT22;12678;51.336;12.406;2023-12-28T14:02:18;10.60;99.90
24518;DHT22;12678;51.336;12.406;2023-12-28T14:04:43;10.60;99.90
24518;DHT22;12678;51.336;12.406;2023-12-28T14:07:09;10.60;99.90
24518;DHT22;12678;51.336;12.406;2023-12-28T14:09:34;10.60;99.90
24518;DHT22;12678;51.336;12.406;2023-12-28T14:12:01;10.60;99.90
24518;DHT22;12678;51.336;12.406;2023-12-28T14:14:27;10.60;99.90
24518;DHT22;12678;51.336;12.406;2023-12-28T14:16:52;10.50;99.90
24518;DHT22;12678;51.336;12.406;2023-12-28T14:19:18;10.60;99.90
24518;DHT22;12678;51.336;12.406;2023-12-28T14:21:43;10.50;99.90
24518;DHT22;12678;51.336;12.406;2023-12-28T14:24:09;10.50;99.90
24518;DHT22;12678;51.336;12.406;2023-12-28T14:26:40;10.50;99.90
24518;DHT22;12678;51.336;12.406;2023-12-28T14:29:07;10.50;99.90
24518;DHT22;12678;51.336;12.406;2023-12-28T14:31:33;10.50;99.90
24518;DHT22;12678;51.336;12.406;2023-12-28T14:33:59;10.50;99.90
24518;DHT22;12678;51.336;12.406;2023-12-28T14:36:31;10.40;99.90
24518;DHT22;12678;51.336;12.406;2023-12-28T14:39:02;10.50;99.90
24518;DHT22;12678;51.336;12.406;2023-12-28T14:41:30;10.40;99.90
24518;DHT22;12678;51.336;12.406;2023-12-28T14:43:56;10.40;99.90
24518;DHT22;12678;51.336;12.406;2023-12-28T14:46:25;10.40;99.90
24518;DHT22;12678;51.336;12.406;2023-12-28T14:48:51;10.40;99.90
24518;DHT22;12678;51.336;12.406;2023-12-28T14:51:17;10.40;99.90
24518;DHT22;12678;51.336;12.406;2023-12-28T14:53:42;10.40;99.90
24518;DHT22;12678;51.336;12.406;2023-12-28T14:56:08;10.30;99.90
24518;DHT22;12678;51.336;12.406;2023-12-28T14:58:34;10.30;99.90
24518;DHT22;12678;51.336;12.406;2023-12-28T15:00:59;10.30;99.90
24518;DHT22;12678;51.336;12.406;2023-12-28T15:03:25;10.30;99.90
24518;DHT22;12678;51.336;12.406;2023-12-28T15:05:51;10.40;99.90
24518;DHT22;12678;51.336;12.406;2023-12-28T15:08:17;10.30;99.90
24518;DHT22;12678;51.336;12.406;2023-12-28T15:10:43;10.30;99.90
24518;DHT22;12678;51.336;12.406;2023-12-28T15:13:09;10.30;99.90
24518;DHT22;12678;51.336;12.406;2023-12-28T15:15:35;10.30;99.90
24518;DHT22;12678;51.336;12.406;2023-12-28T15:18:01;10.20;99.90
24518;DHT22;12678;51.336;12.406;2023-12-28T15:20:27;10.20;99.90